Clyde River, Canada
Current Conditions -  °F | °C
As of 1:00 PM on Saturday 25 Oct 2014 (Local Time) from CYCY Reporting Station
Blowing Snow Blowing Snow  
Wind Chill: -11°   Ceiling: Unl
Heat Index:   Visibility: 25mi
Dew Point:   Wind: 16mph
Humidity: 79%   Direction: 290°WNW
Pressure: 30.1"   Gusts: NA
Location:  70.45°N, 68.57°W
Report Text: CYCY 251700Z 29014KT 25SM DRSN FEW060 M14/M17 A3010 RMK SC1 SLP194
Loading
Personal Weather Stations






























Interactive Weather Map
Tropical Storm Tracking
New forecast layout! Learn more

10-Day Weather Forecast

Advertisements
Track Severe Weather on mobile